Time;durP1;ratioP1;P1;durP2;ratioP2;P2;SDS_P1;SDS_P2;PMS_P1;PMS_P2;Temp;Humidity;BMP_temperature;BMP_pressure;BME280_temperature;BME280_humidity;BME280_pressure;Samples;Min_cycle;Max_cycle;Signal;HPM_P1;HPM_P2
2022/03/20 00:00:39;;;;;;;11.17;5.37;;;;;;;4.95;60.13;103239.50;5006774;28;20127;-75
2022/03/20 00:03:07;;;;;;;10.63;5.77;;;;;;;5.01;59.85;103250.63;4994949;28;20157;-76
2022/03/20 00:05:34;;;;;;;9.63;5.20;;;;;;;5.00;60.15;103245.38;5014473;28;20651;-77
2022/03/20 00:08:10;;;;;;;12.67;5.47;;;;;;;4.96;60.09;103243.91;5015337;28;20069;-76
2022/03/20 00:10:42;;;;;;;14.83;6.40;;;;;;;4.95;60.41;103242.19;5015051;28;20071;-76
2022/03/20 00:13:09;;;;;;;11.67;6.10;;;;;;;4.88;60.38;103237.28;5006909;28;20041;-76
2022/03/20 00:15:42;;;;;;;13.37;6.50;;;;;;;4.90;60.64;103239.84;5015357;28;20033;-76
2022/03/20 00:18:09;;;;;;;12.30;6.87;;;;;;;4.85;60.72;103233.97;5018440;28;20041;-75
2022/03/20 00:20:39;;;;;;;16.67;7.17;;;;;;;4.84;60.59;103230.44;5016674;28;20029;-76
2022/03/20 00:23:06;;;;;;;14.23;7.73;;;;;;;4.82;60.59;103232.34;5018181;28;20049;-76
2022/03/20 00:25:34;;;;;;;13.43;7.70;;;;;;;4.85;60.52;103229.44;5017820;28;20029;-76
2022/03/20 00:28:00;;;;;;;12.87;7.37;;;;;;;4.81;60.80;103221.75;5019260;28;20037;-77
2022/03/20 00:30:25;;;;;;;16.80;8.97;;;;;;;4.76;60.93;103221.22;5018370;28;20037;-76
2022/03/20 00:32:50;;;;;;;11.60;7.20;;;;;;;4.71;60.92;103214.38;5018759;28;20643;-77
2022/03/20 00:35:16;;;;;;;14.67;8.80;;;;;;;4.63;61.78;103211.41;5018542;28;20048;-78
2022/03/20 00:37:41;;;;;;;14.80;8.90;;;;;;;4.59;61.99;103203.69;5018874;28;20050;-77
2022/03/20 00:40:07;;;;;;;17.00;8.27;;;;;;;4.48;61.86;103181.16;5018363;28;20398;-76
2022/03/20 00:42:32;;;;;;;17.87;9.60;;;;;;;4.47;61.75;103192.03;5018865;28;20033;-77
2022/03/20 00:44:58;;;;;;;16.87;9.43;;;;;;;4.44;62.08;103190.44;5024535;28;20041;-76
2022/03/20 00:47:23;;;;;;;14.60;6.97;;;;;;;4.36;62.16;103187.44;5018727;28;20042;-77
2022/03/20 00:49:49;;;;;;;14.10;6.90;;;;;;;4.33;62.72;103182.31;5016157;28;20041;-76
2022/03/20 00:52:14;;;;;;;16.03;7.80;;;;;;;4.24;62.97;103183.84;5009906;28;20049;-77
2022/03/20 00:54:40;;;;;;;18.03;9.27;;;;;;;4.16;62.81;103173.69;5017538;28;20068;-76
2022/03/20 00:57:06;;;;;;;11.43;6.57;;;;;;;4.14;63.47;103159.50;4993268;28;20029;-77
2022/03/20 00:59:31;;;;;;;14.33;8.20;;;;;;;4.08;63.56;103161.78;5018238;28;20099;-76
2022/03/20 01:01:57;;;;;;;12.60;6.53;;;;;;;4.01;63.66;103159.56;5017866;28;20479;-77
2022/03/20 01:04:22;;;;;;;14.03;7.57;;;;;;;3.93;63.88;103156.56;5018075;28;20053;-77
2022/03/20 01:06:47;;;;;;;17.27;7.23;;;;;;;3.86;64.05;103148.13;5018448;28;20045;-76
2022/03/20 01:09:13;;;;;;;12.93;7.27;;;;;;;3.85;64.75;103157.13;5018165;28;20393;-76
2022/03/20 01:11:38;;;;;;;16.93;9.10;;;;;;;3.83;64.66;103160.88;5017011;28;20477;-77
2022/03/20 01:14:06;;;;;;;17.03;8.20;;;;;;;3.75;64.91;103156.06;5017838;28;20042;-77
2022/03/20 01:16:31;;;;;;;15.77;8.90;;;;;;;3.74;64.78;103159.72;5017846;28;20041;-77
2022/03/20 01:18:57;;;;;;;16.00;8.73;;;;;;;3.63;65.11;103140.84;5018616;28;20100;-76
2022/03/20 01:21:23;;;;;;;19.27;9.60;;;;;;;3.66;64.94;103146.00;5018320;28;20136;-76
2022/03/20 01:23:48;;;;;;;16.93;9.87;;;;;;;3.60;65.25;103138.41;5023426;28;20033;-77
2022/03/20 01:26:15;;;;;;;17.70;10.30;;;;;;;3.65;64.91;103144.28;5017442;28;20047;-76
2022/03/20 01:28:40;;;;;;;18.77;10.87;;;;;;;3.63;65.04;103140.84;5014858;28;20033;-76
2022/03/20 01:31:08;;;;;;;18.60;10.97;;;;;;;3.63;65.15;103131.00;5016689;28;20176;-76
2022/03/20 01:33:34;;;;;;;20.13;11.40;;;;;;;3.63;64.75;103125.63;5032724;28;20159;-77
2022/03/20 01:36:00;;;;;;;19.40;11.53;;;;;;;3.62;64.95;103125.72;5017202;28;20078;-76
2022/03/20 01:38:26;;;;;;;21.03;12.40;;;;;;;3.52;64.48;103099.59;5017342;28;22076;-76
2022/03/20 01:40:52;;;;;;;21.10;12.90;;;;;;;3.60;64.16;103104.38;5017598;28;20033;-76
2022/03/20 01:43:18;;;;;;;22.30;13.57;;;;;;;3.63;63.94;103103.31;4999396;28;20030;-77
2022/03/20 01:45:44;;;;;;;22.93;14.07;;;;;;;3.65;64.10;103098.72;5017342;28;20038;-76
2022/03/20 01:48:10;;;;;;;22.20;13.77;;;;;;;3.63;64.13;103092.59;5017345;28;20036;-77
2022/03/20 01:50:35;;;;;;;23.03;14.23;;;;;;;3.61;64.29;103090.03;5017200;28;20471;-76
2022/03/20 01:53:01;;;;;;;23.50;13.77;;;;;;;3.59;63.91;103083.94;5017830;28;20045;-76
2022/03/20 01:55:28;;;;;;;23.20;15.10;;;;;;;3.60;63.92;103076.72;5016735;28;20050;-75
2022/03/20 01:57:55;;;;;;;23.87;14.23;;;;;;;3.54;63.66;103073.53;5017132;28;20073;-75
2022/03/20 02:00:22;;;;;;;22.00;14.57;;;;;;;3.55;64.12;103066.34;5007761;28;20061;-77
2022/03/20 02:02:47;;;;;;;22.60;14.93;;;;;;;3.55;63.74;103077.94;5017222;28;20041;-75
2022/03/20 02:05:13;;;;;;;24.33;15.63;;;;;;;3.58;63.51;103070.63;5031692;28;20060;-77
2022/03/20 02:07:40;;;;;;;23.67;15.77;;;;;;;3.59;64.00;103077.69;5016973;28;20052;-76
2022/03/20 02:10:07;;;;;;;22.77;14.90;;;;;;;3.54;63.92;103068.16;5016941;28;20049;-76
2022/03/20 02:12:34;;;;;;;23.63;15.53;;;;;;;3.58;63.53;103066.13;5015811;28;20025;-76
2022/03/20 02:15:01;;;;;;;22.67;15.40;;;;;;;3.55;63.82;103069.03;5016850;28;20044;-75
2022/03/20 02:17:28;;;;;;;24.93;16.03;;;;;;;3.53;63.92;103065.59;5016262;28;20046;-76
2022/03/20 02:19:56;;;;;;;25.90;16.57;;;;;;;3.51;63.68;103060.34;5016801;28;20424;-76
2022/03/20 02:22:21;;;;;;;24.80;16.40;;;;;;;3.48;64.25;103057.03;5016306;28;20535;-76
2022/03/20 02:24:49;;;;;;;27.47;15.70;;;;;;;3.50;63.78;103061.31;5016670;28;20075;-74
2022/03/20 02:27:22;;;;;;;24.40;16.43;;;;;;;3.44;63.91;103043.00;5007856;28;20120;-75
2022/03/20 02:29:49;;;;;;;27.27;16.67;;;;;;;3.43;64.49;103048.44;5016241;28;20436;-76
2022/03/20 02:32:18;;;;;;;25.47;16.97;;;;;;;3.36;64.07;103040.03;5014966;28;20041;-75
2022/03/20 02:34:48;;;;;;;28.03;16.23;;;;;;;3.41;64.26;103037.84;5016631;28;20377;-77
2022/03/20 02:37:16;;;;;;;25.23;16.83;;;;;;;3.35;64.53;103044.50;5016866;28;20079;-76
2022/03/20 02:39:43;;;;;;;25.27;16.73;;;;;;;3.34;64.37;103026.72;5012204;28;20086;-75
2022/03/20 02:42:08;;;;;;;26.50;16.87;;;;;;;3.34;64.17;103032.06;5014902;28;20033;-76
2022/03/20 02:45:13;;;;;;;27.33;17.17;;;;;;;3.35;64.24;103022.22;5016006;28;20674;-76
2022/03/20 02:47:41;;;;;;;26.10;17.30;;;;;;;3.28;64.61;103016.44;4993927;28;20183;-75
2022/03/20 02:50:13;;;;;;;27.47;18.33;;;;;;;3.24;64.56;103006.91;5007273;28;20493;-76
2022/03/20 02:52:39;;;;;;;27.47;17.63;;;;;;;3.25;64.27;103011.31;5016014;28;20035;-75
2022/03/20 02:55:04;;;;;;;29.13;18.83;;;;;;;3.25;64.50;103007.75;5015745;28;20799;-75
2022/03/20 02:57:31;;;;;;;27.53;18.47;;;;;;;3.19;64.53;103001.88;5016151;28;20042;-75
2022/03/20 03:00:01;;;;;;;28.37;18.60;;;;;;;3.19;64.66;103009.91;5015749;28;20091;-76
2022/03/20 03:02:30;;;;;;;30.77;18.77;;;;;;;3.18;64.85;103010.91;5015478;28;20037;-79
2022/03/20 03:04:57;;;;;;;29.30;18.10;;;;;;;3.09;65.13;103008.88;5013685;28;20156;-76
2022/03/20 03:07:23;;;;;;;29.10;19.70;;;;;;;3.05;65.36;102996.66;5007462;28;20044;-77
2022/03/20 03:12:32;;;;;;;28.97;18.93;;;;;;;3.02;64.82;102987.03;5016372;28;20061;-76
2022/03/20 03:17:41;;;;;;;30.73;19.93;;;;;;;3.04;65.22;102981.56;5015905;28;20044;-76
2022/03/20 03:20:07;;;;;;;29.07;20.30;;;;;;;3.00;65.38;102982.75;5015706;28;20392;-75
2022/03/20 03:22:33;;;;;;;30.97;20.27;;;;;;;2.94;65.45;102981.34;5015964;28;20189;-76
2022/03/20 03:24:58;;;;;;;28.87;20.07;;;;;;;2.95;65.26;102974.16;5015535;28;20999;-76
2022/03/20 03:27:23;;;;;;;28.43;20.07;;;;;;;2.90;65.38;102979.88;5013984;28;20151;-81
2022/03/20 03:29:49;;;;;;;29.00;19.77;;;;;;;2.86;65.75;102970.34;5000064;28;20040;-75
2022/03/20 03:32:14;;;;;;;30.73;20.07;;;;;;;2.82;65.78;102963.50;5015491;28;20515;-76
2022/03/20 03:37:24;;;;;;;29.57;20.73;;;;;;;2.78;66.22;102967.34;5013113;28;20902;-75
2022/03/20 03:39:50;;;;;;;31.70;20.57;;;;;;;2.75;66.10;102955.03;5015529;28;20300;-76
2022/03/20 03:42:15;;;;;;;30.63;20.13;;;;;;;2.72;66.29;102944.56;5014771;28;20131;-77
2022/03/20 03:44:41;;;;;;;31.07;20.47;;;;;;;2.70;66.74;102949.13;5015290;28;20042;-78
2022/03/20 03:47:32;;;;;;;29.00;19.70;;;;;;;2.68;66.47;102943.06;5014911;28;20056;-75
2022/03/20 03:49:57;;;;;;;29.50;19.97;;;;;;;2.62;67.04;102938.13;5007153;28;20037;-76
2022/03/20 03:52:22;;;;;;;33.17;21.93;;;;;;;2.57;67.01;102927.75;4989174;28;20073;-76
2022/03/20 03:54:48;;;;;;;31.90;21.23;;;;;;;2.53;67.14;102940.47;5014680;28;20091;-76
2022/03/20 03:57:13;;;;;;;30.70;21.00;;;;;;;2.50;67.31;102932.66;5020303;28;20048;-76
2022/03/20 03:59:38;;;;;;;31.33;20.80;;;;;;;2.51;67.40;102920.97;5015097;28;20116;-76
2022/03/20 04:02:04;;;;;;;30.83;21.30;;;;;;;2.47;67.28;102914.13;5014956;28;20029;-76
2022/03/20 04:04:30;;;;;;;31.50;21.03;;;;;;;2.46;67.57;102912.44;5014720;28;20156;-75
2022/03/20 04:06:56;;;;;;;29.10;21.13;;;;;;;2.35;67.95;102901.63;5014857;28;20104;-81
2022/03/20 04:09:21;;;;;;;30.23;20.60;;;;;;;2.44;67.75;102905.47;5013488;28;20029;-77
2022/03/20 04:11:47;;;;;;;31.93;20.67;;;;;;;2.37;67.62;102905.06;5014814;28;21038;-76
2022/03/20 04:14:13;;;;;;;29.13;19.67;;;;;;;2.37;68.34;102915.75;5014588;28;20460;-75
2022/03/20 04:16:38;;;;;;;30.90;20.77;;;;;;;2.32;67.92;102909.88;5014447;28;20132;-78
2022/03/20 04:19:04;;;;;;;32.20;20.67;;;;;;;2.33;67.71;102908.91;5015133;28;20506;-77
2022/03/20 04:21:29;;;;;;;31.47;20.73;;;;;;;2.33;67.55;102898.22;5014367;28;20060;-75
2022/03/20 04:23:55;;;;;;;30.57;20.63;;;;;;;2.29;67.84;102889.53;5015140;28;20041;-75
2022/03/20 04:26:22;;;;;;;28.43;20.27;;;;;;;2.34;68.35;102895.41;5013087;28;20095;-75
2022/03/20 04:28:48;;;;;;;30.67;20.53;;;;;;;2.32;67.82;102891.13;5014841;28;20033;-76
2022/03/20 04:31:15;;;;;;;28.53;19.53;;;;;;;2.34;67.98;102875.84;5013352;28;20385;-76
2022/03/20 04:33:45;;;;;;;27.13;19.07;;;;;;;2.30;68.14;102863.63;5011784;28;20298;-76
2022/03/20 04:36:10;;;;;;;30.03;20.17;;;;;;;2.28;67.74;102857.53;5014299;28;20803;-75
2022/03/20 04:38:37;;;;;;;30.87;20.47;;;;;;;2.34;67.52;102857.97;5014758;28;20320;-75
2022/03/20 04:41:03;;;;;;;30.97;19.53;;;;;;;2.35;67.54;102858.81;5013461;28;20041;-75
2022/03/20 04:43:28;;;;;;;28.47;19.27;;;;;;;2.31;67.54;102871.56;5014442;28;20797;-77
2022/03/20 04:45:54;;;;;;;30.60;19.83;;;;;;;2.30;67.20;102863.63;5014309;28;20056;-77
2022/03/20 04:59:16;;;;;;;29.30;19.70;;;;;;;2.16;67.95;102849.41;5015097;28;20578;-76
2022/03/20 05:01:41;;;;;;;28.23;19.83;;;;;;;2.16;67.91;102848.53;5004188;28;20041;-76
2022/03/20 05:04:06;;;;;;;29.80;19.87;;;;;;;2.14;67.58;102845.13;5016510;28;20460;-76
2022/03/20 05:06:32;;;;;;;27.67;19.03;;;;;;;2.10;67.69;102838.28;5016064;28;20049;-76
2022/03/20 05:13:19;;;;;;;27.60;18.77;;;;;;;2.12;67.73;102839.03;5018581;28;20079;-76
2022/03/20 05:14:28;;;;;;;29.20;18.92;;;;;;;2.12;67.85;102829.19;5016739;28;20158;-76
2022/03/20 05:16:53;;;;;;;28.07;19.50;;;;;;;2.08;67.93;102822.38;5017586;28;20133;-76
2022/03/20 05:19:19;;;;;;;28.43;18.57;;;;;;;2.07;67.71;102812.63;5017828;28;20126;-76
2022/03/20 05:21:48;;;;;;;29.00;18.77;;;;;;;2.05;67.59;102813.69;5017805;28;20062;-76
2022/03/20 05:24:14;;;;;;;31.93;19.93;;;;;;;2.06;67.44;102810.91;5017847;28;20060;-76
2022/03/20 05:26:40;;;;;;;28.17;19.30;;;;;;;2.05;67.50;102819.88;5017612;28;20690;-76
2022/03/20 05:29:06;;;;;;;28.60;18.67;;;;;;;2.06;67.23;102826.09;5017703;28;20296;-76
2022/03/20 05:31:32;;;;;;;29.00;18.93;;;;;;;2.00;67.26;102812.19;5017786;28;20035;-77
2022/03/20 05:33:58;;;;;;;28.13;19.90;;;;;;;2.05;66.67;102819.88;5017746;28;20061;-76
2022/03/20 05:36:28;;;;;;;29.63;20.10;;;;;;;2.01;66.92;102807.69;5005964;28;20615;-76
2022/03/20 05:38:55;;;;;;;31.53;19.67;;;;;;;2.03;66.49;102809.28;5017435;28;20315;-76
2022/03/20 05:44:04;;;;;;;29.97;20.03;;;;;;;2.09;65.65;102816.03;5017547;28;20299;-75
2022/03/20 05:46:29;;;;;;;30.80;20.13;;;;;;;2.08;65.37;102817.00;5017485;28;20772;-77
2022/03/20 05:48:55;;;;;;;31.03;19.77;;;;;;;2.06;65.65;102815.41;5017577;28;20060;-76
2022/03/20 05:51:20;;;;;;;29.90;19.23;;;;;;;2.08;65.02;102792.94;5017230;28;20038;-74
2022/03/20 05:53:45;;;;;;;30.33;19.60;;;;;;;2.11;64.06;102808.75;5017318;28;20152;-76
2022/03/20 05:58:57;;;;;;;30.40;20.20;;;;;;;2.19;62.74;102795.72;5017249;28;20202;-75
2022/03/20 06:01:23;;;;;;;27.97;19.20;;;;;;;2.26;63.14;102782.75;5016896;28;20410;-76
2022/03/20 06:03:49;;;;;;;30.10;19.13;;;;;;;2.30;62.22;102776.22;5031402;28;20075;-77
2022/03/20 06:06:15;;;;;;;27.60;18.90;;;;;;;2.39;62.60;102784.56;5006295;28;20046;-76
2022/03/20 06:08:40;;;;;;;28.93;19.50;;;;;;;2.37;62.86;102787.34;5021725;28;20103;-76
2022/03/20 06:11:06;;;;;;;27.83;19.50;;;;;;;2.45;62.22;102784.09;5016945;28;20041;-78
2022/03/20 06:13:37;;;;;;;29.73;19.67;;;;;;;2.51;61.27;102778.31;5016919;28;20034;-74
2022/03/20 06:16:18;;;;;;;26.97;17.17;;;;;;;2.62;61.02;102780.22;5014604;28;20047;-76
2022/03/20 06:18:43;;;;;;;26.47;17.70;;;;;;;2.63;61.73;102777.41;5015877;28;20303;-76
2022/03/20 06:21:13;;;;;;;27.53;18.00;;;;;;;2.65;61.09;102779.97;5015104;28;20033;-75
2022/03/20 06:23:38;;;;;;;30.40;20.00;;;;;;;2.67;61.26;102783.41;5017049;28;20034;-78
2022/03/20 06:26:04;;;;;;;28.90;19.20;;;;;;;2.73;60.71;102776.75;5016662;28;20044;-75
2022/03/20 06:28:30;;;;;;;28.43;19.57;;;;;;;2.76;60.65;102781.88;5016868;28;20574;-76
2022/03/20 06:30:55;;;;;;;29.40;19.53;;;;;;;2.80;60.69;102772.63;5016699;28;20283;-83
2022/03/20 06:33:21;;;;;;;30.10;19.83;;;;;;;2.85;60.00;102771.34;5016021;28;20129;-76
2022/03/20 06:35:46;;;;;;;29.10;19.30;;;;;;;2.91;60.09;102771.84;5015587;28;20073;-76
2022/03/20 06:38:12;;;;;;;27.63;18.60;;;;;;;2.95;60.51;102776.00;5016043;28;20129;-77
2022/03/20 06:40:38;;;;;;;28.47;19.53;;;;;;;3.01;60.25;102772.88;5015862;28;20126;-75
2022/03/20 06:43:04;;;;;;;28.60;19.17;;;;;;;3.04;59.58;102775.34;5005937;28;20393;-75
2022/03/20 06:45:29;;;;;;;27.60;18.30;;;;;;;3.08;58.98;102775.97;5016242;28;20071;-84
2022/03/20 06:47:55;;;;;;;29.17;18.50;;;;;;;3.08;58.77;102765.25;5016294;28;20524;-77
2022/03/20 06:50:21;;;;;;;29.17;19.07;;;;;;;3.09;58.74;102778.53;5021899;28;20461;-77
2022/03/20 06:52:47;;;;;;;30.37;19.33;;;;;;;3.12;58.69;102761.38;5016586;28;20464;-76
2022/03/20 06:55:14;;;;;;;27.57;18.13;;;;;;;3.11;58.97;102765.84;5012515;28;20043;-76
2022/03/20 06:57:41;;;;;;;28.30;19.03;;;;;;;3.13;58.06;102760.38;5015851;28;20419;-75
2022/03/20 07:00:08;;;;;;;28.10;18.97;;;;;;;3.12;58.06;102745.31;5014631;28;20037;-77
2022/03/20 07:02:34;;;;;;;29.63;18.87;;;;;;;3.23;57.96;102755.22;5014563;28;20120;-77
2022/03/20 07:05:00;;;;;;;29.43;19.60;;;;;;;3.27;57.59;102759.34;5014757;28;20555;-77
2022/03/20 07:07:26;;;;;;;28.73;19.03;;;;;;;3.36;57.41;102742.59;5015627;28;20041;-76
2022/03/20 07:09:52;;;;;;;28.80;18.40;;;;;;;3.46;56.45;102742.72;5016419;28;20041;-77
2022/03/20 07:12:18;;;;;;;29.27;18.87;;;;;;;3.54;56.13;102742.97;5029985;28;20884;-77
2022/03/20 07:14:45;;;;;;;28.77;18.37;;;;;;;3.59;55.56;102734.56;5015891;28;20048;-78
2022/03/20 07:17:19;;;;;;;26.17;17.73;;;;;;;3.70;55.91;102729.25;5015744;28;20419;-75
2022/03/20 07:19:44;;;;;;;26.70;17.92;;;;;;;3.73;54.61;102734.38;5031587;28;20084;-78
2022/03/20 07:22:11;;;;;;;29.43;17.80;;;;;;;3.82;54.28;102733.66;5015601;28;20547;-77
2022/03/20 07:24:39;;;;;;;29.33;18.67;;;;;;;3.87;55.23;102718.03;5015730;28;20520;-78
2022/03/20 07:29:50;;;;;;;26.45;17.20;;;;;;;4.00;54.14;102703.66;5015871;28;20107;-75
2022/03/20 07:32:37;;;;;;;29.53;17.90;;;;;;;4.07;53.72;102699.50;5006548;28;20045;-75
2022/03/20 07:35:03;;;;;;;26.30;16.50;;;;;;;4.14;53.73;102698.03;4989116;28;20040;-76
2022/03/20 07:37:29;;;;;;;25.67;16.87;;;;;;;4.15;53.25;102675.59;5013240;28;20547;-75
2022/03/20 07:39:54;;;;;;;25.93;17.17;;;;;;;4.21;52.82;102685.81;5014159;28;20037;-75
2022/03/20 07:42:20;;;;;;;28.07;18.27;;;;;;;4.19;51.56;102689.63;5015138;28;20094;-80
2022/03/20 07:44:46;;;;;;;27.87;18.30;;;;;;;4.22;51.10;102695.56;5012497;28;20088;-77
2022/03/20 07:47:19;;;;;;;28.23;17.10;;;;;;;4.33;51.69;102688.50;5020372;28;20487;-75
2022/03/20 07:50:06;;;;;;;25.20;16.30;;;;;;;4.33;52.22;102685.81;5005276;28;20385;-76
2022/03/20 07:52:31;;;;;;;28.23;17.83;;;;;;;4.32;52.27;102698.34;5015164;28;20535;-77
2022/03/20 07:54:57;;;;;;;26.03;16.97;;;;;;;4.32;51.47;102698.34;5014334;28;20227;-81
2022/03/20 07:57:22;;;;;;;27.63;17.07;;;;;;;4.33;51.16;102683.13;5030322;28;20041;-78
2022/03/20 07:59:47;;;;;;;27.53;17.80;;;;;;;4.36;51.53;102693.59;5015596;28;20048;-76
2022/03/20 08:02:13;;;;;;;26.83;18.03;;;;;;;4.39;49.76;102687.97;5013184;28;20102;-79
2022/03/20 08:04:40;;;;;;;26.77;17.50;;;;;;;4.37;50.38;102674.69;5015281;28;20057;-75
2022/03/20 08:07:06;;;;;;;25.97;17.47;;;;;;;4.41;50.27;102648.47;5011578;28;20768;-76
2022/03/20 08:09:32;;;;;;;24.73;16.20;;;;;;;4.44;50.17;102664.31;5014187;28;20045;-77
2022/03/20 08:11:57;;;;;;;27.10;18.30;;;;;;;4.40;50.85;102676.28;5015069;28;20033;-77
2022/03/20 08:14:23;;;;;;;25.67;17.57;;;;;;;4.33;50.51;102653.59;5015448;28;20044;-80
2022/03/20 08:16:50;;;;;;;29.17;18.73;;;;;;;4.39;51.18;102664.69;5014861;28;20049;-77
2022/03/20 08:19:17;;;;;;;26.17;17.33;;;;;;;4.34;50.91;102666.06;5014812;28;20084;-76
2022/03/20 08:21:43;;;;;;;28.03;18.03;;;;;;;4.29;52.32;102650.31;5015392;28;20029;-79
2022/03/20 08:24:09;;;;;;;26.80;17.93;;;;;;;4.32;50.23;102654.56;5014053;28;20033;-76
2022/03/20 08:26:35;;;;;;;25.43;17.63;;;;;;;4.28;50.95;102656.66;5014815;28;20246;-83
2022/03/20 08:29:01;;;;;;;26.80;18.23;;;;;;;4.28;51.30;102655.81;5013648;28;20111;-79
2022/03/20 08:31:28;;;;;;;28.03;18.57;;;;;;;4.29;50.09;102655.69;5006117;28;20072;-77
2022/03/20 08:33:54;;;;;;;30.03;19.20;;;;;;;4.29;49.34;102658.38;5015142;28;20484;-79
2022/03/20 08:36:21;;;;;;;27.77;17.87;;;;;;;4.34;49.97;102655.31;5014290;28;22139;-77
2022/03/20 08:38:47;;;;;;;28.47;18.37;;;;;;;4.35;51.55;102654.31;5017198;28;20537;-76
2022/03/20 08:41:13;;;;;;;30.63;19.67;;;;;;;4.35;51.54;102657.00;5017259;28;20037;-78
2022/03/20 08:43:38;;;;;;;26.60;17.80;;;;;;;4.38;51.56;102654.09;5008410;28;20510;-77
2022/03/20 08:46:04;;;;;;;27.20;18.57;;;;;;;4.33;49.89;102645.56;5016918;28;20037;-80
2022/03/20 08:48:29;;;;;;;26.73;18.37;;;;;;;4.32;50.68;102654.56;5010408;28;20045;-80
2022/03/20 08:50:54;;;;;;;27.20;18.87;;;;;;;4.32;51.16;102655.41;5018698;28;20040;-79
2022/03/20 08:53:20;;;;;;;28.13;18.80;;;;;;;4.27;52.64;102646.91;5016686;28;20045;-76
2022/03/20 08:55:47;;;;;;;29.13;19.03;;;;;;;4.26;50.24;102658.63;5016987;28;20037;-79
2022/03/20 08:58:12;;;;;;;27.47;17.87;;;;;;;4.32;50.79;102659.94;5018100;28;20044;-78
2022/03/20 09:00:39;;;;;;;26.93;18.20;;;;;;;4.26;50.99;102661.31;5018454;28;20041;-79
2022/03/20 09:03:05;;;;;;;28.67;18.57;;;;;;;4.27;52.08;102660.34;5018139;28;20421;-77
2022/03/20 09:05:30;;;;;;;27.87;18.40;;;;;;;4.29;51.08;102657.53;5016193;28;20164;-78
2022/03/20 09:07:57;;;;;;;29.53;19.13;;;;;;;4.32;50.44;102659.94;5018470;28;20179;-78
2022/03/20 09:10:24;;;;;;;28.67;19.00;;;;;;;4.35;51.78;102659.69;5018277;28;20520;-79
2022/03/20 09:12:49;;;;;;;28.30;18.73;;;;;;;4.38;50.94;102654.09;5016489;28;20028;-79
2022/03/20 09:15:16;;;;;;;28.60;18.17;;;;;;;4.42;51.77;102660.91;5018124;28;20033;-78
2022/03/20 09:20:31;;;;;;;27.73;18.73;;;;;;;4.50;50.93;102653.06;5018401;28;20459;-79
2022/03/20 09:22:57;;;;;;;26.23;18.80;;;;;;;4.57;51.60;102640.84;5016440;28;21698;-78
2022/03/20 09:25:23;;;;;;;29.30;19.73;;;;;;;4.63;53.11;102639.47;5016508;28;20044;-78
2022/03/20 09:27:48;;;;;;;28.00;18.40;;;;;;;4.71;53.23;102630.78;5017714;28;20041;-80
2022/03/20 09:30:17;;;;;;;28.83;19.30;;;;;;;4.80;50.77;102629.13;5017863;28;20037;-79
2022/03/20 09:32:43;;;;;;;29.73;18.90;;;;;;;4.95;51.84;102624.28;4999483;28;20037;-77
2022/03/20 09:35:09;;;;;;;26.90;19.03;;;;;;;5.15;51.83;102615.38;5017690;28;20037;-79
2022/03/20 09:37:35;;;;;;;27.97;18.73;;;;;;;5.45;51.15;102616.38;5016108;28;20505;-76
2022/03/20 09:40:00;;;;;;;29.20;19.07;;;;;;;5.89;51.45;102613.44;5017507;28;20034;-77
2022/03/20 09:42:26;;;;;;;27.13;19.40;;;;;;;6.41;51.39;102614.13;5016273;28;20383;-76
2022/03/20 09:44:53;;;;;;;27.47;19.70;;;;;;;6.79;49.66;102611.56;5017437;28;20040;-76
2022/03/20 09:47:19;;;;;;;30.20;20.17;;;;;;;7.26;48.40;102591.88;5016975;28;20041;-76
2022/03/20 09:49:47;;;;;;;29.43;18.63;;;;;;;7.73;46.57;102567.53;5015644;28;20492;-77
2022/03/20 09:52:14;;;;;;;29.73;19.73;;;;;;;8.18;45.58;102592.00;5016259;28;20095;-80
2022/03/20 09:54:39;;;;;;;27.43;19.57;;;;;;;8.37;44.39;102591.00;5015740;28;20394;-80
2022/03/20 09:57:07;;;;;;;29.90;19.97;;;;;;;8.20;43.76;102579.19;5015175;28;20127;-77
2022/03/20 09:59:34;;;;;;;29.37;19.93;;;;;;;8.01;42.23;102596.34;5017253;28;20034;-79
2022/03/20 10:02:03;;;;;;;31.07;21.57;;;;;;;7.83;43.24;102585.53;5017071;28;20670;-79
2022/03/20 10:04:29;;;;;;;30.67;21.10;;;;;;;7.73;42.80;102593.69;4992307;28;20198;-79
2022/03/20 10:06:55;;;;;;;33.77;26.03;;;;;;;7.64;43.92;102594.56;5017273;28;20045;-79
2022/03/20 10:09:23;;;;;;;32.60;24.07;;;;;;;7.57;43.30;102600.56;5014777;28;20041;-80
2022/03/20 10:11:53;;;;;;;32.30;24.57;;;;;;;7.48;44.51;102596.06;5015596;28;20125;-79
2022/03/20 10:14:20;;;;;;;32.03;22.97;;;;;;;7.33;44.42;102602.94;5022466;28;20045;-79
2022/03/20 10:16:54;;;;;;;31.87;24.97;;;;;;;7.23;43.87;102608.34;5016677;28;20041;-80
2022/03/20 10:19:23;;;;;;;32.40;23.48;;;;;;;7.11;44.40;102610.38;5017023;28;20485;-79
2022/03/20 10:21:52;;;;;;;34.13;23.17;;;;;;;6.93;45.60;102607.56;5015176;28;20043;-80
2022/03/20 10:24:21;;;;;;;32.37;24.10;;;;;;;6.83;48.62;102609.44;5016447;28;20033;-78
2022/03/20 10:26:52;;;;;;;32.47;23.97;;;;;;;6.77;51.06;102632.41;5017245;28;20044;-77
2022/03/20 10:29:18;;;;;;;34.20;26.73;;;;;;;6.14;55.21;102635.50;5015836;28;20041;-82
2022/03/20 10:31:52;;;;;;;35.80;25.43;;;;;;;5.72;60.41;102645.34;5015509;28;20122;-82
2022/03/20 10:34:18;;;;;;;38.67;28.87;;;;;;;5.25;64.58;102658.44;5022334;28;20033;-78
2022/03/20 10:36:44;;;;;;;37.93;28.50;;;;;;;4.93;65.08;102650.44;5017077;28;20286;-78
2022/03/20 10:39:15;;;;;;;39.53;29.77;;;;;;;4.73;67.50;102661.91;5016627;28;20393;-79
2022/03/20 10:41:41;;;;;;;40.43;29.80;;;;;;;4.45;70.69;102649.91;5016548;28;20037;-82
2022/03/20 10:44:18;;;;;;;44.23;32.60;;;;;;;4.24;73.68;102657.88;5031332;28;20489;-79
2022/03/20 10:46:56;;;;;;;42.27;30.90;;;;;;;4.05;74.03;102654.03;5016398;28;20619;-80
2022/03/20 10:49:22;;;;;;;42.83;31.93;;;;;;;3.87;75.45;102639.41;5016024;28;20697;-79
2022/03/20 10:52:02;;;;;;;42.40;31.20;;;;;;;3.85;77.13;102628.81;5016439;28;20047;-78
2022/03/20 10:54:40;;;;;;;44.23;34.03;;;;;;;3.86;78.98;102617.13;5015163;28;20045;-77
2022/03/20 10:57:08;;;;;;;45.83;35.03;;;;;;;3.89;80.03;102622.22;5015862;28;20532;-78
2022/03/20 10:59:34;;;;;;;43.40;32.70;;;;;;;3.96;78.53;102627.09;5014483;28;20029;-78
2022/03/20 11:02:00;;;;;;;44.80;34.70;;;;;;;4.04;78.60;102619.28;5015334;28;20496;-76
2022/03/20 11:04:28;;;;;;;43.70;34.17;;;;;;;4.12;77.79;102618.66;5003031;28;20073;-78
2022/03/20 11:06:54;;;;;;;43.87;34.00;;;;;;;4.19;77.49;102615.34;5013379;28;20111;-78
2022/03/20 11:09:21;;;;;;;44.83;32.77;;;;;;;4.29;76.26;102617.28;5012378;28;20072;-79
2022/03/20 11:11:52;;;;;;;42.70;32.73;;;;;;;4.39;76.90;102615.50;5012970;28;20041;-78
2022/03/20 11:14:20;;;;;;;43.60;32.30;;;;;;;4.47;75.85;102621.09;5018228;28;20045;-78
2022/03/20 11:16:51;;;;;;;41.97;32.40;;;;;;;4.55;77.09;102617.78;5013179;28;20044;-78
2022/03/20 11:19:22;;;;;;;44.40;33.03;;;;;;;4.67;76.73;102619.44;5012384;28;20112;-78
2022/03/20 11:21:52;;;;;;;44.33;33.03;;;;;;;4.70;76.06;102615.63;5012910;28;20087;-78
2022/03/20 11:24:18;;;;;;;43.43;32.10;;;;;;;4.79;76.12;102620.22;5012637;28;20468;-79
2022/03/20 11:26:49;;;;;;;44.37;32.20;;;;;;;4.83;74.12;102616.31;5010098;28;20037;-78
2022/03/20 11:29:15;;;;;;;42.87;32.40;;;;;;;4.91;75.46;102629.09;5012511;28;20124;-80
2022/03/20 11:31:42;;;;;;;42.60;31.97;;;;;;;4.94;73.51;102627.94;5012278;28;20124;-78
2022/03/20 11:34:08;;;;;;;42.13;32.13;;;;;;;5.01;75.02;102618.41;5012065;28;20040;-78
2022/03/20 11:36:58;;;;;;;41.53;30.53;;;;;;;5.18;73.94;102630.38;5012582;28;20045;-78
2022/03/20 11:39:24;;;;;;;41.57;30.20;;;;;;;5.19;73.21;102611.44;5011862;28;20606;-78
2022/03/20 11:42:24;;;;;;;43.87;31.80;;;;;;;5.33;72.11;102620.13;5010913;28;20045;-78
2022/03/20 11:44:53;;;;;;;42.33;32.23;;;;;;;5.44;73.81;102617.38;5011515;28;20033;-78
2022/03/20 11:47:20;;;;;;;39.87;30.30;;;;;;;5.44;71.21;102603.94;5012231;28;20451;-79
2022/03/20 11:50:24;;;;;;;39.03;30.40;;;;;;;5.57;71.09;102609.91;5012768;28;20073;-78
2022/03/20 11:53:03;;;;;;;42.90;31.77;;;;;;;5.66;71.55;102618.19;4999012;28;20045;-78